Time;durP1;ratioP1;P1;durP2;ratioP2;P2;SDS_P1;SDS_P2;PMS_P1;PMS_P2;Temp;Humidity;BMP_temperature;BMP_pressure;BME280_temperature;BME280_humidity;BME280_pressure;Samples;Min_cycle;Max_cycle;Signal;HPM_P1;HPM_P2
2021/04/26 00:01:23;;;;;;;4.75;1.20;;;;;;;;;;5084301;28;22136;-57
2021/04/26 00:03:50;;;;;;;3.28;0.93;;;;;;;;;;5081121;28;20052;-54
2021/04/26 00:06:17;;;;;;;2.08;1.35;;;;;;;;;;5088522;28;20037;-56
2021/04/26 00:08:43;;;;;;;1.42;1.02;;;;;;;;;;5082248;28;20075;-55
2021/04/26 00:11:09;;;;;;;1.60;1.30;;;;;;;;;;5081803;28;20045;-57
2021/04/26 00:13:36;;;;;;;1.35;0.95;;;;;;;;;;5078779;28;20082;-56
2021/04/26 00:16:02;;;;;;;1.10;1.00;;;;;;;;;;5083187;28;20037;-55
2021/04/26 00:18:29;;;;;;;1.58;1.05;;;;;;;;;;5086866;28;20173;-57
2021/04/26 00:20:55;;;;;;;2.67;1.08;;;;;;;;;;5086369;28;20047;-57
2021/04/26 00:23:21;;;;;;;2.00;1.15;;;;;;;;;;5084760;28;20063;-55
2021/04/26 00:25:47;;;;;;;2.72;1.23;;;;;;;;;;5089156;28;20036;-56
2021/04/26 00:28:14;;;;;;;1.75;1.33;;;;;;;;;;5085403;28;20037;-54
2021/04/26 00:30:40;;;;;;;0.77;0.73;;;;;;;;;;5090746;28;20055;-55
2021/04/26 00:33:06;;;;;;;2.33;0.98;;;;;;;;;;5082642;28;20040;-52
2021/04/26 00:35:33;;;;;;;1.02;0.93;;;;;;;;;;5083038;28;20628;-55
2021/04/26 00:37:59;;;;;;;1.17;0.93;;;;;;;;;;5084010;28;20131;-54
2021/04/26 00:40:26;;;;;;;2.08;1.00;;;;;;;;;;5077570;28;20772;-53
2021/04/26 00:42:52;;;;;;;6.15;1.50;;;;;;;;;;5085436;28;20711;-55
2021/04/26 00:45:20;;;;;;;1.77;0.90;;;;;;;;;;5064234;28;20052;-55
2021/04/26 00:47:47;;;;;;;1.23;1.00;;;;;;;;;;5085545;28;20050;-55
2021/04/26 00:50:15;;;;;;;2.90;0.98;;;;;;;;;;5087775;28;20147;-54
2021/04/26 00:52:44;;;;;;;2.17;1.02;;;;;;;;;;5070131;28;20048;-52
2021/04/26 00:55:11;;;;;;;1.90;1.10;;;;;;;;;;5071750;28;20044;-56
2021/04/26 00:57:37;;;;;;;1.00;0.90;;;;;;;;;;5088765;28;20055;-55
2021/04/26 01:00:05;;;;;;;1.23;1.02;;;;;;;;;;5081330;28;20036;-57
2021/04/26 01:02:31;;;;;;;3.63;1.38;;;;;;;;;;5072370;28;20075;-54
2021/04/26 01:04:58;;;;;;;1.52;1.13;;;;;;;;;;5083041;28;20039;-52
2021/04/26 01:07:24;;;;;;;5.13;1.10;;;;;;;;;;5066143;28;20059;-55
2021/04/26 01:09:50;;;;;;;2.70;1.23;;;;;;;;;;5082931;28;20143;-55
2021/04/26 01:12:32;;;;;;;1.80;1.20;;;;;;;;;;5084566;28;20028;-53
2021/04/26 01:14:58;;;;;;;4.72;1.25;;;;;;;;;;5087257;28;20291;-57
2021/04/26 01:17:27;;;;;;;1.05;0.95;;;;;;;;;;5086529;28;20044;-55
2021/04/26 01:20:09;;;;;;;2.13;1.17;;;;;;;;;;5079464;28;20044;-56
2021/04/26 01:22:52;;;;;;;2.50;0.95;;;;;;;;;;5080098;28;20135;-56
2021/04/26 01:25:20;;;;;;;3.85;1.10;;;;;;;;;;5081113;28;20040;-57
2021/04/26 01:27:47;;;;;;;1.20;1.10;;;;;;;;;;5082204;28;20090;-57
2021/04/26 01:30:20;;;;;;;1.63;0.98;;;;;;;;;;5100820;27;20059;-56
2021/04/26 01:33:27;;;;;;;6.60;1.35;;;;;;;;;;5071438;28;20051;-55
2021/04/26 01:36:02;;;;;;;1.75;0.93;;;;;;;;;;5080987;28;20058;-56
2021/04/26 01:38:35;;;;;;;2.78;1.00;;;;;;;;;;5081346;28;20135;-55
2021/04/26 01:41:02;;;;;;;3.25;1.52;;;;;;;;;;5082793;28;20542;-55
2021/04/26 01:43:30;;;;;;;2.92;1.20;;;;;;;;;;5062886;28;20408;-56
2021/04/26 01:45:59;;;;;;;2.65;1.15;;;;;;;;;;5086462;28;20056;-55
2021/04/26 01:48:29;;;;;;;1.85;1.17;;;;;;;;;;5079458;28;20113;-56
2021/04/26 01:50:58;;;;;;;1.98;1.17;;;;;;;;;;5068845;28;20525;-56
2021/04/26 01:53:24;;;;;;;;;;;;;;;;;;5083896;28;20064;-57
2021/04/26 01:55:55;;;;;;;1.58;1.10;;;;;;;;;;5068610;28;19951;-56
2021/04/26 01:58:22;;;;;;;1.25;1.10;;;;;;;;;;5073681;28;20507;-55
2021/04/26 02:00:48;;;;;;;2.78;1.02;;;;;;;;;;5066706;28;20241;-57
2021/04/26 02:03:18;;;;;;;2.28;1.40;;;;;;;;;;5085127;28;20119;-54
2021/04/26 02:05:57;;;;;;;2.17;1.08;;;;;;;;;;5080572;28;20063;-56
2021/04/26 02:08:26;;;;;;;1.67;1.13;;;;;;;;;;5070420;28;20051;-53
2021/04/26 02:10:53;;;;;;;1.10;1.00;;;;;;;;;;5069948;28;20556;-53
2021/04/26 02:13:23;;;;;;;1.30;1.10;;;;;;;;;;5083137;28;20028;-56
2021/04/26 02:15:54;;;;;;;2.17;1.48;;;;;;;;;;5061357;28;20044;-55
2021/04/26 02:18:21;;;;;;;2.95;1.50;;;;;;;;;;5067852;28;20135;-57
2021/04/26 02:20:48;;;;;;;4.32;1.42;;;;;;;;;;5067637;28;20506;-55
2021/04/26 02:23:14;;;;;;;1.90;0.90;;;;;;;;;;5082051;28;20356;-56
2021/04/26 02:25:42;;;;;;;2.53;1.27;;;;;;;;;;5086906;28;20040;-56
2021/04/26 02:28:09;;;;;;;1.27;0.95;;;;;;;;;;5083675;28;20044;-57
2021/04/26 02:30:35;;;;;;;1.48;1.20;;;;;;;;;;5085621;28;20040;-56
2021/04/26 02:33:04;;;;;;;2.20;1.23;;;;;;;;;;5070612;28;20135;-54
2021/04/26 02:36:20;;;;;;;2.63;1.40;;;;;;;;;;5063378;28;20121;-52
2021/04/26 02:38:49;;;;;;;2.03;1.27;;;;;;;;;;5030140;28;20123;-56
2021/04/26 02:41:20;;;;;;;2.47;1.20;;;;;;;;;;5059988;28;20579;-55
2021/04/26 02:43:53;;;;;;;2.10;1.13;;;;;;;;;;5061619;28;20180;-56
2021/04/26 02:46:22;;;;;;;2.13;1.20;;;;;;;;;;5081300;28;20515;-53
2021/04/26 02:48:50;;;;;;;1.20;1.00;;;;;;;;;;5086537;28;20044;-55
2021/04/26 02:51:16;;;;;;;0.82;0.82;;;;;;;;;;5058932;28;20041;-56
2021/04/26 02:53:43;;;;;;;1.42;1.13;;;;;;;;;;5069380;28;20039;-56
2021/04/26 02:56:11;;;;;;;1.17;1.03;;;;;;;;;;5067315;28;20044;-53
2021/04/26 02:58:40;;;;;;;2.10;1.10;;;;;;;;;;5066403;28;20340;-54
2021/04/26 03:01:15;;;;;;;2.88;1.83;;;;;;;;;;5071785;28;20086;-54
2021/04/26 03:04:05;;;;;;;3.50;1.17;;;;;;;;;;5072541;28;20628;-57
2021/04/26 03:06:32;;;;;;;5.80;1.77;;;;;;;;;;5071564;28;20048;-53
2021/04/26 03:09:20;;;;;;;3.13;1.37;;;;;;;;;;5081334;28;20149;-51
2021/04/26 03:11:51;;;;;;;2.07;1.60;;;;;;;;;;5061816;28;20492;-55
2021/04/26 03:14:18;;;;;;;1.95;1.27;;;;;;;;;;5080046;28;20504;-57
2021/04/26 03:16:46;;;;;;;3.63;1.30;;;;;;;;;;5081636;28;20097;-55
2021/04/26 03:19:13;;;;;;;1.35;1.05;;;;;;;;;;5059610;28;20044;-52
2021/04/26 03:21:41;;;;;;;1.42;1.00;;;;;;;;;;5071226;28;20096;-53
2021/04/26 03:24:08;;;;;;;1.30;1.03;;;;;;;;;;5084333;28;20040;-56
2021/04/26 03:26:36;;;;;;;3.22;1.10;;;;;;;;;;5055826;28;20040;-56
2021/04/26 03:29:04;;;;;;;1.30;1.20;;;;;;;;;;5066700;28;20055;-51
2021/04/26 03:31:30;;;;;;;2.80;0.90;;;;;;;;;;5081211;28;20044;-55
2021/04/26 03:34:02;;;;;;;2.00;1.20;;;;;;;;;;5066031;28;20062;-54
2021/04/26 03:36:29;;;;;;;2.80;1.13;;;;;;;;;;5067494;28;20097;-57
2021/04/26 03:38:56;;;;;;;4.88;1.27;;;;;;;;;;5071589;28;20040;-52
2021/04/26 03:41:23;;;;;;;4.28;1.73;;;;;;;;;;5085329;28;20126;-53
2021/04/26 03:43:50;;;;;;;2.05;1.38;;;;;;;;;;5081617;28;20101;-51
2021/04/26 03:46:21;;;;;;;1.67;1.30;;;;;;;;;;5064824;28;20039;-52
2021/04/26 03:49:17;;;;;;;2.57;1.50;;;;;;;;;;5083442;28;20075;-56
2021/04/26 03:52:05;;;;;;;3.78;1.45;;;;;;;;;;5080054;28;20133;-55
2021/04/26 03:54:49;;;;;;;4.73;1.70;;;;;;;;;;5086868;28;20115;-58
2021/04/26 03:57:16;;;;;;;2.83;1.40;;;;;;;;;;5089827;28;20118;-53
2021/04/26 03:59:42;;;;;;;1.40;1.30;;;;;;;;;;5086674;28;20035;-55
2021/04/26 04:02:09;;;;;;;3.67;1.33;;;;;;;;;;5074140;28;20039;-53
2021/04/26 04:04:41;;;;;;;1.93;1.40;;;;;;;;;;5085134;28;20059;-55
2021/04/26 04:07:26;;;;;;;2.10;1.20;;;;;;;;;;5087071;28;20407;-58
2021/04/26 04:10:22;;;;;;;3.58;1.33;;;;;;;;;;5021334;28;20181;-54
2021/04/26 04:13:07;;;;;;;6.03;1.50;;;;;;;;;;5090676;28;20039;-57
2021/04/26 04:15:37;;;;;;;3.78;1.50;;;;;;;;;;5072345;28;20135;-53
2021/04/26 04:18:04;;;;;;;4.88;1.42;;;;;;;;;;5071405;28;20097;-54
2021/04/26 04:20:35;;;;;;;3.50;1.27;;;;;;;;;;5087961;28;20046;-56
2021/04/26 04:23:01;;;;;;;1.23;0.95;;;;;;;;;;5063699;28;20037;-55
2021/04/26 04:25:28;;;;;;;2.38;1.13;;;;;;;;;;5087148;28;20330;-56
2021/04/26 04:27:57;;;;;;;1.75;1.08;;;;;;;;;;5085602;28;20492;-57
2021/04/26 04:30:24;;;;;;;1.27;1.10;;;;;;;;;;5071292;28;20562;-57
2021/04/26 04:33:09;;;;;;;1.48;1.10;;;;;;;;;;5085519;28;20063;-57
2021/04/26 04:36:05;;;;;;;1.58;1.05;;;;;;;;;;5061035;28;20055;-56
2021/04/26 04:38:50;;;;;;;2.13;1.30;;;;;;;;;;5084199;28;20179;-55
2021/04/26 04:41:55;;;;;;;2.50;1.20;;;;;;;;;;5017463;28;20176;-56
2021/04/26 04:44:22;;;;;;;1.45;1.10;;;;;;;;;;5006970;28;20049;-57
2021/04/26 04:46:50;;;;;;;2.95;1.30;;;;;;;;;;5038155;28;20063;-55
2021/04/26 04:49:22;;;;;;;1.75;1.13;;;;;;;;;;5070827;28;20040;-57
2021/04/26 04:51:48;;;;;;;3.63;1.05;;;;;;;;;;5072704;28;20048;-55
2021/04/26 04:54:16;;;;;;;2.10;1.10;;;;;;;;;;5073109;28;20127;-56
2021/04/26 04:57:08;;;;;;;1.52;1.13;;;;;;;;;;5077970;28;20101;-57
2021/04/26 04:59:39;;;;;;;4.13;1.00;;;;;;;;;;5084101;28;20045;-54
2021/04/26 05:02:17;;;;;;;;;;;;;;;;;;5066541;28;20528;-52
2021/04/26 05:05:02;;;;;;;1.52;1.10;;;;;;;;;;5081537;28;19931;-57
2021/04/26 05:07:57;;;;;;;1.33;1.08;;;;;;;;;;5086361;28;20124;-56
2021/04/26 05:11:02;;;;;;;2.10;1.20;;;;;;;;;;5089146;28;20105;-55
2021/04/26 05:13:58;;;;;;;3.70;1.50;;;;;;;;;;5038181;28;20663;-57
2021/04/26 05:16:28;;;;;;;1.93;1.50;;;;;;;;;;5090065;28;20044;-57
2021/04/26 05:18:56;;;;;;;1.20;1.10;;;;;;;;;;5083565;28;20298;-53
2021/04/26 05:21:22;;;;;;;1.55;1.08;;;;;;;;;;5086730;28;20046;-56
2021/04/26 05:23:49;;;;;;;1.83;1.33;;;;;;;;;;5087858;28;20102;-57
2021/04/26 05:26:16;;;;;;;2.67;1.70;;;;;;;;;;5075653;28;20093;-56
2021/04/26 05:28:42;;;;;;;1.48;1.17;;;;;;;;;;5085950;28;20511;-54
2021/04/26 05:31:09;;;;;;;3.15;1.27;;;;;;;;;;5087500;28;20049;-54
2021/04/26 05:33:35;;;;;;;2.47;1.30;;;;;;;;;;5080220;28;20059;-55
2021/04/26 05:36:27;;;;;;;1.67;1.30;;;;;;;;;;5082421;28;20094;-55
2021/04/26 05:39:02;;;;;;;4.88;1.30;;;;;;;;;;5086371;28;20504;-61
2021/04/26 05:41:28;;;;;;;2.47;1.20;;;;;;;;;;5069953;28;20424;-57
2021/04/26 05:43:54;;;;;;;1.55;1.00;;;;;;;;;;5081956;28;20043;-57
2021/04/26 05:46:24;;;;;;;3.42;1.25;;;;;;;;;;5066355;28;20051;-57
2021/04/26 05:48:51;;;;;;;3.17;1.10;;;;;;;;;;5073517;28;20058;-55
2021/04/26 05:51:17;;;;;;;3.42;1.20;;;;;;;;;;5083128;28;20048;-57
2021/04/26 05:53:43;;;;;;;1.90;1.05;;;;;;;;;;5090445;28;20052;-57
2021/04/26 05:56:10;;;;;;;2.45;1.20;;;;;;;;;;5085176;28;20491;-57
2021/04/26 05:58:36;;;;;;;1.98;1.25;;;;;;;;;;5089578;28;20036;-56
2021/04/26 06:01:02;;;;;;;1.10;1.00;;;;;;;;;;5081855;28;20036;-58
2021/04/26 06:03:29;;;;;;;1.02;0.90;;;;;;;;;;5079514;28;20210;-54
2021/04/26 06:05:56;;;;;;;1.38;0.93;;;;;;;;;;5082785;28;20055;-57
2021/04/26 06:08:23;;;;;;;1.10;1.00;;;;;;;;;;5086190;28;20059;-57
2021/04/26 06:10:49;;;;;;;3.97;0.90;;;;;;;;;;5081098;28;20044;-57
2021/04/26 06:13:16;;;;;;;2.22;1.10;;;;;;;;;;5083920;28;20563;-57
2021/04/26 06:15:42;;;;;;;2.65;1.33;;;;;;;;;;5082763;28;20041;-58
2021/04/26 06:18:34;;;;;;;6.32;1.58;;;;;;;;;;5080537;28;20047;-59
2021/04/26 06:21:01;;;;;;;2.67;1.70;;;;;;;;;;5081483;28;20047;-58
2021/04/26 06:23:27;;;;;;;1.70;1.20;;;;;;;;;;5077772;28;20040;-58
2021/04/26 06:25:53;;;;;;;2.08;1.30;;;;;;;;;;5064273;28;20459;-59
2021/04/26 06:28:21;;;;;;;2.28;1.20;;;;;;;;;;5084335;28;20097;-58
2021/04/26 06:30:47;;;;;;;1.98;1.23;;;;;;;;;;5082260;28;20051;-57
2021/04/26 06:33:16;;;;;;;2.20;1.52;;;;;;;;;;5088751;28;20577;-59
2021/04/26 06:35:47;;;;;;;3.13;1.38;;;;;;;;;;5085061;28;20048;-59
2021/04/26 06:38:14;;;;;;;2.20;1.45;;;;;;;;;;5080555;28;20094;-59
2021/04/26 06:40:40;;;;;;;4.20;1.20;;;;;;;;;;5084314;28;20581;-59
2021/04/26 06:43:08;;;;;;;1.65;1.30;;;;;;;;;;5085576;28;20040;-59
2021/04/26 06:45:38;;;;;;;1.85;0.88;;;;;;;;;;5066501;28;20523;-59
2021/04/26 06:48:06;;;;;;;2.05;0.98;;;;;;;;;;5084429;28;20044;-57
2021/04/26 06:50:32;;;;;;;2.45;0.98;;;;;;;;;;5079244;28;20040;-58
2021/04/26 06:52:58;;;;;;;1.55;1.02;;;;;;;;;;5087568;28;20040;-59
2021/04/26 06:55:25;;;;;;;2.65;1.00;;;;;;;;;;5080782;28;20549;-59
2021/04/26 06:57:51;;;;;;;4.83;1.30;;;;;;;;;;5083700;28;20061;-59
2021/04/26 07:00:19;;;;;;;0.93;0.82;;;;;;;;;;5081226;28;20048;-58
2021/04/26 07:02:45;;;;;;;;;;;;;;;;;;5082769;28;20043;-60
2021/04/26 07:05:12;;;;;;;2.63;1.00;;;;;;;;;;5080805;28;20283;-59
2021/04/26 07:07:38;;;;;;;3.17;1.40;;;;;;;;;;5082617;28;20097;-60
2021/04/26 07:10:05;;;;;;;2.47;1.10;;;;;;;;;;5084023;28;20126;-59
2021/04/26 07:12:32;;;;;;;3.50;1.63;;;;;;;;;;5082330;28;20410;-59
2021/04/26 07:14:59;;;;;;;2.88;0.90;;;;;;;;;;5080497;28;20045;-60
2021/04/26 07:17:25;;;;;;;1.48;1.00;;;;;;;;;;5080833;28;20648;-60
2021/04/26 07:19:52;;;;;;;1.30;0.88;;;;;;;;;;5070498;28;20045;-58
2021/04/26 07:22:18;;;;;;;1.63;0.73;;;;;;;;;;5075699;28;20051;-59
2021/04/26 07:24:44;;;;;;;1.70;1.05;;;;;;;;;;5082735;28;20052;-60
2021/04/26 07:27:11;;;;;;;0.80;0.75;;;;;;;;;;5081060;28;20054;-59
2021/04/26 07:29:37;;;;;;;1.10;0.73;;;;;;;;;;5086341;28;20043;-59
2021/04/26 07:32:04;;;;;;;2.38;0.60;;;;;;;;;;5090044;28;20044;-59
2021/04/26 07:34:35;;;;;;;2.78;0.68;;;;;;;;;;5089230;28;20051;-60
2021/04/26 07:37:02;;;;;;;0.90;0.70;;;;;;;;;;5089621;28;20047;-59
2021/04/26 07:39:28;;;;;;;1.50;0.60;;;;;;;;;;5090522;28;20097;-59
2021/04/26 07:41:55;;;;;;;1.30;0.60;;;;;;;;;;5092541;28;20040;-58
2021/04/26 07:44:21;;;;;;;1.33;0.80;;;;;;;;;;5086204;28;20117;-58
2021/04/26 07:46:47;;;;;;;1.95;0.70;;;;;;;;;;5084777;28;20040;-59
2021/04/26 07:49:15;;;;;;;2.40;0.82;;;;;;;;;;5079712;28;20158;-59
2021/04/26 07:51:42;;;;;;;1.85;0.60;;;;;;;;;;5086936;28;20044;-59
2021/04/26 07:54:08;;;;;;;1.35;0.90;;;;;;;;;;5085770;28;20136;-59
2021/04/26 07:56:35;;;;;;;1.50;0.98;;;;;;;;;;5088791;28;20242;-59
2021/04/26 07:59:02;;;;;;;1.33;0.75;;;;;;;;;;5089598;28;20101;-58
2021/04/26 08:01:28;;;;;;;1.00;0.75;;;;;;;;;;5087720;28;20101;-59
2021/04/26 08:03:54;;;;;;;2.75;0.82;;;;;;;;;;5085370;28;20102;-59
2021/04/26 08:06:21;;;;;;;1.57;0.87;;;;;;;;;;5085288;28;20399;-59
2021/04/26 08:08:47;;;;;;;1.52;0.70;;;;;;;;;;5087317;28;20292;-59
2021/04/26 08:11:14;;;;;;;2.47;0.90;;;;;;;;;;5086613;28;20041;-57
2021/04/26 08:13:40;;;;;;;1.98;0.55;;;;;;;;;;5082316;28;20041;-58
2021/04/26 08:16:07;;;;;;;1.88;0.60;;;;;;;;;;5079418;28;20029;-58
2021/04/26 08:18:33;;;;;;;0.90;0.63;;;;;;;;;;5084622;28;20415;-58
2021/04/26 08:21:00;;;;;;;0.57;0.50;;;;;;;;;;5085700;28;20048;-59
2021/04/26 08:23:26;;;;;;;1.63;0.70;;;;;;;;;;5085207;28;20654;-58
2021/04/26 08:25:54;;;;;;;2.60;1.00;;;;;;;;;;5088230;28;20051;-58
2021/04/26 08:28:21;;;;;;;1.55;0.80;;;;;;;;;;5091077;28;20131;-57
2021/04/26 08:30:47;;;;;;;0.95;0.70;;;;;;;;;;5077878;28;20063;-57
2021/04/26 08:33:14;;;;;;;2.47;0.70;;;;;;;;;;5068055;28;20037;-58
2021/04/26 08:35:40;;;;;;;0.70;0.50;;;;;;;;;;5071092;28;20464;-57
2021/04/26 08:38:07;;;;;;;2.28;0.65;;;;;;;;;;5069318;28;20044;-58
2021/04/26 08:40:33;;;;;;;2.88;0.85;;;;;;;;;;5059765;28;20033;-61
2021/04/26 08:43:03;;;;;;;4.30;0.90;;;;;;;;;;5066625;28;20098;-57
2021/04/26 08:45:32;;;;;;;3.58;1.05;;;;;;;;;;5060179;28;20397;-57
2021/04/26 08:48:00;;;;;;;1.67;0.70;;;;;;;;;;5064983;28;20159;-57
2021/04/26 08:50:30;;;;;;;2.05;0.68;;;;;;;;;;5064134;28;20404;-58
2021/04/26 08:52:56;;;;;;;2.45;0.60;;;;;;;;;;5069637;28;20041;-58
2021/04/26 08:55:23;;;;;;;1.45;0.75;;;;;;;;;;5069638;28;20036;-56
2021/04/26 08:57:49;;;;;;;2.95;1.00;;;;;;;;;;5069742;28;20041;-58
2021/04/26 09:00:16;;;;;;;1.73;0.80;;;;;;;;;;5067415;28;20041;-57
2021/04/26 09:02:50;;;;;;;2.50;0.40;;;;;;;;;;5069762;28;20590;-57
2021/04/26 09:05:24;;;;;;;1.27;0.88;;;;;;;;;;5044122;28;20425;-58
2021/04/26 09:07:51;;;;;;;0.60;0.60;;;;;;;;;;5066880;28;21885;-58
2021/04/26 09:10:34;;;;;;;2.83;0.80;;;;;;;;;;5061569;28;20128;-59
2021/04/26 09:13:20;;;;;;;1.20;0.60;;;;;;;;;;5060675;28;20044;-57
2021/04/26 09:15:53;;;;;;;13.65;0.93;;;;;;;;;;5061243;28;20445;-57
2021/04/26 09:18:20;;;;;;;1.10;0.77;;;;;;;;;;5069761;28;20098;-52
2021/04/26 09:20:46;;;;;;;1.38;0.60;;;;;;;;;;5064345;28;20904;-57
2021/04/26 09:23:15;;;;;;;0.52;0.52;;;;;;;;;;5068011;28;20044;-56
2021/04/26 09:25:42;;;;;;;1.10;0.70;;;;;;;;;;5065592;28;20099;-54
2021/04/26 09:28:11;;;;;;;2.47;0.73;;;;;;;;;;5067887;28;20083;-56
2021/04/26 09:30:42;;;;;;;0.93;0.63;;;;;;;;;;5063785;28;20052;-55
2021/04/26 09:33:33;;;;;;;0.65;0.50;;;;;;;;;;5087629;28;20036;-56
2021/04/26 09:36:16;;;;;;;1.63;0.50;;;;;;;;;;5090562;28;20048;-54
2021/04/26 09:38:47;;;;;;;0.52;0.52;;;;;;;;;;5078019;28;20037;-54
2021/04/26 09:41:19;;;;;;;4.22;0.65;;;;;;;;;;5081426;28;20048;-52
2021/04/26 09:43:50;;;;;;;0.90;0.80;;;;;;;;;;5091315;28;20106;-52
2021/04/26 09:46:19;;;;;;;1.23;0.70;;;;;;;;;;5086465;28;20048;-54
2021/04/26 09:48:45;;;;;;;1.75;0.68;;;;;;;;;;5080079;28;20041;-56
2021/04/26 09:51:21;;;;;;;1.90;0.82;;;;;;;;;;5085828;28;20052;-54
2021/04/26 09:53:52;;;;;;;2.55;0.93;;;;;;;;;;5084219;28;20162;-54
2021/04/26 09:56:24;;;;;;;2.85;0.88;;;;;;;;;;5085774;28;20547;-55
2021/04/26 09:58:56;;;;;;;1.52;0.68;;;;;;;;;;5089849;28;20040;-55
2021/04/26 10:01:24;;;;;;;0.75;0.50;;;;;;;;;;5085736;28;20522;-56
2021/04/26 10:03:51;;;;;;;3.05;0.60;;;;;;;;;;5087172;28;20253;-50
2021/04/26 10:06:20;;;;;;;0.50;0.50;;;;;;;;;;5075747;28;20052;-54
2021/04/26 10:08:48;;;;;;;1.73;0.80;;;;;;;;;;5077484;28;20052;-54
2021/04/26 10:11:15;;;;;;;0.65;0.60;;;;;;;;;;5078700;28;20055;-56
2021/04/26 10:13:43;;;;;;;4.97;0.60;;;;;;;;;;5083942;28;20083;-54
2021/04/26 10:16:13;;;;;;;2.33;0.60;;;;;;;;;;5087013;28;20443;-57
2021/04/26 10:18:41;;;;;;;0.43;0.43;;;;;;;;;;5080740;28;20051;-54
2021/04/26 10:21:17;;;;;;;2.45;0.70;;;;;;;;;;5083831;28;20500;-55
2021/04/26 10:23:48;;;;;;;1.95;0.63;;;;;;;;;;5070968;28;20052;-58
2021/04/26 10:26:35;;;;;;;1.13;0.52;;;;;;;;;;5083986;28;20136;-56
2021/04/26 10:29:08;;;;;;;0.60;0.52;;;;;;;;;;5084936;28;20158;-50
2021/04/26 10:31:54;;;;;;;0.60;0.60;;;;;;;;;;5088565;28;20048;-50
2021/04/26 10:34:21;;;;;;;1.17;0.60;;;;;;;;;;5093799;28;20150;-57
2021/04/26 10:36:53;;;;;;;0.95;0.50;;;;;;;;;;5093394;28;20152;-55
2021/04/26 10:39:21;;;;;;;2.38;0.55;;;;;;;;;;5093952;28;20507;-55
2021/04/26 10:41:59;;;;;;;2.83;0.90;;;;;;;;;;5093664;28;20040;-52
2021/04/26 10:44:41;;;;;;;2.47;0.70;;;;;;;;;;5093588;28;20518;-54
2021/04/26 10:47:16;;;;;;;0.55;0.50;;;;;;;;;;5093245;28;20559;-55
2021/04/26 10:49:47;;;;;;;0.90;0.75;;;;;;;;;;5093227;28;20495;-55
2021/04/26 10:52:33;;;;;;;1.35;0.80;;;;;;;;;;5093448;28;20048;-54
2021/04/26 10:55:06;;;;;;;1.20;0.73;;;;;;;;;;5093850;28;20036;-52
2021/04/26 10:57:33;;;;;;;1.40;0.85;;;;;;;;;;5093373;28;20415;-57
2021/04/26 11:00:26;;;;;;;1.48;0.77;;;;;;;;;;5093152;28;20044;-53
2021/04/26 11:02:58;;;;;;;1.73;0.80;;;;;;;;;;5070176;28;20040;-54
2021/04/26 11:05:24;;;;;;;2.70;0.80;;;;;;;;;;5093134;28;20191;-52
2021/04/26 11:08:00;;;;;;;4.43;0.77;;;;;;;;;;5093316;28;20048;-56
2021/04/26 11:10:26;;;;;;;3.10;0.88;;;;;;;;;;5093002;28;20372;-54
2021/04/26 11:12:53;;;;;;;2.33;0.80;;;;;;;;;;5093114;28;20514;-55
2021/04/26 11:15:20;;;;;;;0.70;0.68;;;;;;;;;;5093517;28;20039;-53
2021/04/26 11:17:46;;;;;;;4.60;0.70;;;;;;;;;;5093034;28;20036;-55
2021/04/26 11:20:20;;;;;;;3.72;0.90;;;;;;;;;;5092953;28;20548;-56
2021/04/26 11:22:47;;;;;;;1.10;0.95;;;;;;;;;;5075304;28;20043;-56
2021/04/26 11:25:32;;;;;;;1.30;0.60;;;;;;;;;;5093007;28;20044;-55
2021/04/26 11:27:59;;;;;;;2.25;0.70;;;;;;;;;;5093001;28;20040;-55
2021/04/26 11:30:27;;;;;;;3.40;0.80;;;;;;;;;;5087752;28;20500;-56
2021/04/26 11:32:55;;;;;;;4.75;1.00;;;;;;;;;;5079722;28;20443;-56
2021/04/26 11:35:23;;;;;;;0.77;0.57;;;;;;;;;;5077328;28;20074;-52
2021/04/26 11:37:49;;;;;;;8.57;1.05;;;;;;;;;;5084547;28;20612;-56
2021/04/26 11:40:20;;;;;;;1.60;0.80;;;;;;;;;;5083717;28;20415;-55
2021/04/26 11:42:48;;;;;;;0.70;0.70;;;;;;;;;;5082936;28;20072;-54
2021/04/26 11:45:15;;;;;;;1.67;0.88;;;;;;;;;;5081508;28;20048;-52
2021/04/26 11:47:41;;;;;;;0.77;0.50;;;;;;;;;;5083418;28;20060;-54
2021/04/26 11:50:09;;;;;;;1.25;0.60;;;;;;;;;;5084245;28;20079;-49
2021/04/26 11:52:36;;;;;;;0.70;0.57;;;;;;;;;;5085245;28;20050;-52
2021/04/26 11:55:03;;;;;;;0.90;0.60;;;;;;;;;;5085239;28;20563;-53
2021/04/26 11:57:49;;;;;;;3.55;0.75;;;;;;;;;;5076910;28;20086;-54
2021/04/26 12:00:20;;;;;;;0.60;0.60;;;;;;;;;;5081053;28;20101;-51
2021/04/26 12:02:48;;;;;;;1.27;0.50;;;;;;;;;;5087840;28;20573;-54
2021/04/26 12:05:17;;;;;;;1.17;0.77;;;;;;;;;;5089188;28;20052;-51
2021/04/26 12:07:43;;;;;;;4.22;0.60;;;;;;;;;;5084769;28;20047;-54
2021/04/26 12:10:12;;;;;;;1.40;0.70;;;;;;;;;;5083760;28;20052;-53
2021/04/26 12:12:38;;;;;;;;;;;;;;;;;;5082297;28;20039;-55
2021/04/26 12:15:04;;;;;;;1.17;0.60;;;;;;;;;;5086890;28;19946;-54
2021/04/26 12:17:31;;;;;;;3.10;0.60;;;;;;;;;;5088186;28;20403;-52
2021/04/26 12:19:59;;;;;;;2.17;0.70;;;;;;;;;;5091224;28;20500;-54
2021/04/26 12:22:26;;;;;;;0.57;0.57;;;;;;;;;;5085570;28;20645;-54
2021/04/26 12:24:55;;;;;;;2.07;0.87;;;;;;;;;;5085497;28;20090;-53
2021/04/26 12:27:26;;;;;;;0.80;0.57;;;;;;;;;;5078333;28;20074;-54
2021/04/26 12:29:53;;;;;;;1.67;0.40;;;;;;;;;;5084729;28;20063;-55
2021/04/26 12:32:24;;;;;;;0.80;0.63;;;;;;;;;;5084426;28;20506;-52
2021/04/26 12:35:02;;;;;;;0.88;0.68;;;;;;;;;;5087293;28;20036;-50
2021/04/26 12:37:31;;;;;;;5.72;0.68;;;;;;;;;;5083533;28;20036;-50
2021/04/26 12:40:12;;;;;;;0.93;0.50;;;;;;;;;;5086207;28;20091;-51
2021/04/26 12:42:39;;;;;;;4.38;0.90;;;;;;;;;;5085999;28;20036;-51
2021/04/26 12:45:09;;;;;;;2.17;0.90;;;;;;;;;;5083875;28;20048;-57
2021/04/26 12:47:46;;;;;;;1.80;0.82;;;;;;;;;;5082624;28;20444;-49
2021/04/26 12:50:24;;;;;;;0.85;0.63;;;;;;;;;;5082612;28;20040;-52
2021/04/26 12:53:06;;;;;;;1.13;0.63;;;;;;;;;;5081715;28;20598;-52
2021/04/26 12:55:33;;;;;;;1.42;0.80;;;;;;;;;;5082170;28;20041;-54
2021/04/26 12:58:12;;;;;;;0.63;0.63;;;;;;;;;;5091667;28;20501;-52
2021/04/26 13:00:40;;;;;;;1.65;0.70;;;;;;;;;;5086414;28;20068;-56
2021/04/26 13:03:06;;;;;;;;;;;;;;;;;;5085203;28;20071;-52
2021/04/26 13:05:32;;;;;;;0.60;0.60;;;;;;;;;;5088333;28;19920;-53
2021/04/26 13:07:59;;;;;;;4.38;0.80;;;;;;;;;;5089318;28;20483;-54
2021/04/26 13:10:26;;;;;;;1.50;0.82;;;;;;;;;;5087070;28;20048;-56
2021/04/26 13:13:02;;;;;;;2.47;0.73;;;;;;;;;;5088693;28;20056;-54
2021/04/26 13:15:29;;;;;;;0.77;0.60;;;;;;;;;;5081635;28;20048;-52
2021/04/26 13:18:12;;;;;;;0.63;0.60;;;;;;;;;;5091611;28;20040;-52
2021/04/26 13:20:39;;;;;;;1.48;0.80;;;;;;;;;;5079050;28;20044;-55
2021/04/26 13:23:11;;;;;;;0.90;0.68;;;;;;;;;;5085187;28;20132;-50
2021/04/26 13:25:38;;;;;;;1.15;0.82;;;;;;;;;;5085455;28;20441;-52
2021/04/26 13:28:04;;;;;;;2.50;0.60;;;;;;;;;;5088403;28;20036;-50
2021/04/26 13:30:30;;;;;;;1.55;0.65;;;;;;;;;;5083073;28;20041;-50
2021/04/26 13:32:56;;;;;;;1.92;1.27;;;;;;;;;;5087427;28;20090;-51
2021/04/26 13:35:25;;;;;;;3.05;0.90;;;;;;;;;;5090025;28;20084;-52
2021/04/26 13:37:51;;;;;;;0.70;0.70;;;;;;;;;;5090615;28;20040;-50
2021/04/26 13:40:18;;;;;;;2.08;0.80;;;;;;;;;;5072392;28;20496;-50
2021/04/26 13:42:45;;;;;;;0.98;0.80;;;;;;;;;;5084887;28;20089;-54
2021/04/26 13:45:11;;;;;;;1.85;0.80;;;;;;;;;;5086611;28;20049;-53
2021/04/26 13:47:37;;;;;;;1.33;0.90;;;;;;;;;;5086876;28;20036;-52
2021/04/26 13:50:04;;;;;;;5.78;0.90;;;;;;;;;;5082322;28;20492;-53
2021/04/26 13:52:30;;;;;;;2.25;1.00;;;;;;;;;;5081887;28;20137;-55
2021/04/26 13:54:56;;;;;;;1.08;0.80;;;;;;;;;;5084534;28;20036;-52
2021/04/26 13:57:23;;;;;;;5.68;0.77;;;;;;;;;;5086772;28;20048;-53
2021/04/26 13:59:50;;;;;;;1.10;0.73;;;;;;;;;;5086002;28;20043;-51
2021/04/26 14:02:18;;;;;;;1.38;0.70;;;;;;;;;;5083895;28;20036;-55
2021/04/26 14:04:45;;;;;;;0.70;0.70;;;;;;;;;;5083268;28;20048;-52
2021/04/26 14:07:11;;;;;;;1.02;0.80;;;;;;;;;;5085611;28;20040;-52
2021/04/26 14:09:37;;;;;;;3.42;1.20;;;;;;;;;;5090850;28;20054;-52
2021/04/26 14:12:05;;;;;;;0.67;0.67;;;;;;;;;;5083229;28;20442;-50
2021/04/26 14:14:31;;;;;;;3.83;1.08;;;;;;;;;;5082008;28;20074;-51
2021/04/26 14:16:57;;;;;;;2.03;0.80;;;;;;;;;;5079430;28;20057;-51
2021/04/26 14:19:23;;;;;;;1.63;0.80;;;;;;;;;;5080980;28;20076;-51
2021/04/26 14:21:50;;;;;;;1.40;1.00;;;;;;;;;;5084954;28;20047;-52
2021/04/26 14:24:16;;;;;;;0.80;0.65;;;;;;;;;;5083275;28;20389;-51
2021/04/26 14:26:43;;;;;;;1.50;0.97;;;;;;;;;;5089968;28;20040;-50
2021/04/26 14:29:09;;;;;;;1.00;0.63;;;;;;;;;;5089282;28;20085;-53
2021/04/26 14:31:35;;;;;;;1.92;0.80;;;;;;;;;;5069878;28;20114;-52
2021/04/26 14:34:01;;;;;;;3.03;0.77;;;;;;;;;;5087067;28;20058;-52
2021/04/26 14:36:28;;;;;;;1.05;0.60;;;;;;;;;;5082667;28;20044;-52
2021/04/26 14:38:54;;;;;;;2.25;0.70;;;;;;;;;;5079430;28;20049;-49
2021/04/26 14:41:21;;;;;;;;;;;;;;;;;;5078821;28;20063;-55
2021/04/26 14:43:48;;;;;;;1.95;0.70;;;;;;;;;;5080570;28;20438;-51
2021/04/26 14:46:15;;;;;;;1.55;0.98;;;;;;;;;;5080082;28;20076;-53
2021/04/26 14:48:41;;;;;;;1.30;0.88;;;;;;;;;;5085959;28;20050;-51
2021/04/26 14:51:07;;;;;;;3.28;0.80;;;;;;;;;;5070594;28;20151;-53
2021/04/26 14:53:37;;;;;;;2.88;0.90;;;;;;;;;;5083571;28;20040;-49
2021/04/26 14:56:04;;;;;;;1.20;0.70;;;;;;;;;;5085133;28;20040;-54
2021/04/26 14:58:30;;;;;;;2.55;0.90;;;;;;;;;;5083783;28;20044;-52
2021/04/26 15:00:56;;;;;;;1.02;0.85;;;;;;;;;;5084441;28;20044;-50
2021/04/26 15:03:22;;;;;;;0.88;0.50;;;;;;;;;;5084199;28;20066;-52